Time;durP1;ratioP1;P1;durP2;ratioP2;P2;SDS_P1;SDS_P2;PMS_P1;PMS_P2;Temp;Humidity;BMP_temperature;BMP_pressure;BME280_temperature;BME280_humidity;BME280_pressure;Samples;Min_cycle;Max_cycle;Signal;HPM_P1;HPM_P2
2021/09/18 00:00:14;;;;;;;11.20;8.95;;;;;;;12.09;90.10;100424.28;20705324;28;20077;-82
2021/09/18 00:10:16;;;;;;;16.60;10.80;;;;;;;12.24;89.16;100427.44;20670028;28;20059;-82
2021/09/18 00:20:18;;;;;;;13.48;9.82;;;;;;;12.03;88.52;100426.16;20687232;28;20157;-82
2021/09/18 00:30:20;;;;;;;16.63;9.88;;;;;;;11.80;89.49;100430.97;20681696;28;20050;-82
2021/09/18 00:40:22;;;;;;;15.95;9.93;;;;;;;11.74;89.95;100421.47;20686044;28;20125;-82
2021/09/18 00:50:25;;;;;;;13.70;9.93;;;;;;;11.63;90.12;100414.69;20717615;28;20451;-82
2021/09/18 01:00:26;;;;;;;14.50;10.30;;;;;;;11.49;90.62;100423.69;20684719;28;20108;-82
2021/09/18 01:10:29;;;;;;;16.48;10.45;;;;;;;11.34;90.57;100428.38;20703152;28;20070;-83
2021/09/18 01:20:31;;;;;;;19.67;11.73;;;;;;;11.29;91.17;100423.22;20684721;28;20052;-81
2021/09/18 01:30:35;;;;;;;16.85;12.57;;;;;;;11.33;91.50;100431.88;20678673;28;20046;-82
2021/09/18 01:40:44;;;;;;;18.37;13.33;;;;;;;11.44;90.92;100425.53;20694041;28;20385;-82
2021/09/18 01:50:51;;;;;;;15.38;11.57;;;;;;;11.33;91.65;100417.03;20695696;28;20053;-82
2021/09/18 02:00:59;;;;;;;16.40;12.63;;;;;;;11.22;91.69;100417.22;20678604;28;20428;-82
2021/09/18 02:11:01;;;;;;;19.42;14.10;;;;;;;11.16;92.09;100422.59;20688294;28;20081;-82
2021/09/18 02:21:03;;;;;;;21.83;13.95;;;;;;;11.19;92.03;100424.28;20737268;28;20099;-82
2021/09/18 02:31:05;;;;;;;18.70;12.70;;;;;;;11.21;91.92;100417.22;20835033;28;20460;-82
2021/09/18 02:41:07;;;;;;;18.33;13.30;;;;;;;11.26;91.09;100404.94;20831363;28;20423;-83
2021/09/18 02:51:09;;;;;;;20.95;14.00;;;;;;;11.26;91.40;100408.41;20849202;28;20552;-82
2021/09/18 03:01:11;;;;;;;24.05;15.38;;;;;;;11.12;92.96;100418.28;20830286;28;20077;-82
2021/09/18 03:11:13;;;;;;;25.65;15.90;;;;;;;11.18;91.78;100409.44;20762234;28;20082;-82
2021/09/18 03:21:15;;;;;;;15.80;10.02;;;;;;;10.72;90.77;100403.22;20753738;28;20286;-81
2021/09/18 03:31:20;;;;;;;16.70;10.63;;;;;;;10.62;91.35;100398.16;20762359;28;20097;-82
2021/09/18 03:41:23;;;;;;;19.10;12.80;;;;;;;10.58;92.35;100378.16;20749609;28;20049;-82
2021/09/18 03:51:25;;;;;;;23.77;16.33;;;;;;;10.67;93.09;100385.88;20759099;28;20065;-82
2021/09/18 04:01:28;;;;;;;24.60;15.10;;;;;;;10.74;92.41;100396.22;20774558;28;20050;-82
2021/09/18 04:11:30;;;;;;;21.40;14.25;;;;;;;10.63;92.39;100394.66;20738913;28;20479;-82
2021/09/18 04:21:31;;;;;;;20.40;14.40;;;;;;;10.62;92.18;100406.03;20730787;28;20074;-82
2021/09/18 04:31:33;;;;;;;22.27;14.32;;;;;;;10.69;92.79;100418.16;20748842;28;20116;-82
2021/09/18 04:41:35;;;;;;;19.95;13.65;;;;;;;10.52;93.07;100415.78;20736515;28;20129;-82
2021/09/18 04:51:37;;;;;;;22.30;15.77;;;;;;;10.58;93.04;100407.81;20750150;28;20077;-82
2021/09/18 05:01:39;;;;;;;21.25;12.93;;;;;;;10.57;91.36;100431.41;20733457;28;20574;-82
2021/09/18 05:11:41;;;;;;;16.88;11.20;;;;;;;10.28;90.50;100437.94;20738556;28;20056;-82
2021/09/18 05:21:43;;;;;;;23.25;14.07;;;;;;;10.31;92.38;100443.13;20751787;28;20106;-83
2021/09/18 05:31:48;;;;;;;20.47;13.03;;;;;;;10.40;92.38;100453.47;20751745;28;20069;-83
2021/09/18 05:41:50;;;;;;;21.27;12.65;;;;;;;10.47;91.36;100455.09;20768266;28;20488;-83
2021/09/18 05:51:52;;;;;;;15.60;11.80;;;;;;;10.41;91.11;100455.22;20748423;28;20042;-83
2021/09/18 06:01:54;;;;;;;24.50;14.70;;;;;;;10.59;92.77;100458.41;20763418;28;20129;-82
2021/09/18 06:11:56;;;;;;;23.77;16.60;;;;;;;10.84;93.65;100461.56;20761146;28;20062;-82
2021/09/18 06:21:58;;;;;;;28.10;17.85;;;;;;;11.18;93.30;100464.47;20762665;28;20041;-83
2021/09/18 06:32:01;;;;;;;25.90;17.15;;;;;;;11.40;92.44;100485.94;20742851;28;20114;-83
2021/09/18 06:42:03;;;;;;;35.00;23.45;;;;;;;11.76;93.80;100473.91;20760908;28;20506;-82
2021/09/18 06:52:05;;;;;;;35.75;23.83;;;;;;;12.13;93.54;100479.31;20744928;28;20070;-82
2021/09/18 07:02:10;;;;;;;31.85;22.70;;;;;;;12.47;92.08;100473.34;20740104;28;20072;-82
2021/09/18 07:12:13;;;;;;;30.30;20.70;;;;;;;12.75;90.94;100473.56;20825493;28;20045;-83
2021/09/18 07:22:15;;;;;;;27.52;19.42;;;;;;;12.96;90.68;100473.06;20823314;28;20045;-83
2021/09/18 07:32:19;;;;;;;27.77;20.15;;;;;;;13.39;89.90;100481.66;20837096;28;20408;-82
2021/09/18 07:42:21;;;;;;;31.33;21.30;;;;;;;13.63;89.49;100481.00;20821390;28;20088;-83
2021/09/18 07:52:23;;;;;;;27.98;19.38;;;;;;;13.92;89.26;100488.09;20836512;28;20118;-82
2021/09/18 08:02:26;;;;;;;27.55;19.13;;;;;;;14.40;86.73;100490.22;20847706;28;20052;-82
2021/09/18 08:12:29;;;;;;;24.27;18.15;;;;;;;14.53;85.78;100491.63;20817353;28;20113;-83
2021/09/18 08:22:31;;;;;;;22.50;16.48;;;;;;;14.99;83.84;100484.00;20748391;28;20133;-83
2021/09/18 08:32:34;;;;;;;25.60;16.70;;;;;;;15.27;83.22;100483.97;20743324;28;20042;-83
2021/09/18 08:42:41;;;;;;;21.40;14.43;;;;;;;15.74;81.22;100474.44;20735696;28;20093;-82
2021/09/18 08:52:43;;;;;;;20.50;13.93;;;;;;;16.08;79.10;100474.06;20756974;28;20129;-83
2021/09/18 09:02:53;;;;;;;17.25;11.68;;;;;;;16.55;77.64;100466.09;20749074;28;20118;-82
2021/09/18 09:13:04;;;;;;;13.73;10.07;;;;;;;16.92;73.87;100459.38;20742946;28;20046;-82
2021/09/18 09:23:23;;;;;;;13.52;8.90;;;;;;;17.29;74.60;100461.34;20749429;28;20042;-82
2021/09/18 09:33:25;;;;;;;13.00;8.32;;;;;;;17.74;71.92;100457.66;20736345;28;20466;-83
2021/09/18 09:43:43;;;;;;;10.43;7.38;;;;;;;18.23;69.74;100457.22;20742870;28;20519;-83
2021/09/18 09:53:45;;;;;;;9.45;6.10;;;;;;;18.27;68.13;100448.22;20738073;28;20104;-82
2021/09/18 10:03:47;;;;;;;10.70;6.93;;;;;;;18.69;66.12;100443.56;20754579;28;20558;-83
2021/09/18 10:13:52;;;;;;;10.63;5.40;;;;;;;19.13;62.25;100439.63;20775170;28;20049;-83
2021/09/18 10:23:56;;;;;;;9.40;5.50;;;;;;;19.05;63.15;100440.00;20820539;28;20049;-85
2021/09/18 10:33:58;;;;;;;7.72;4.00;;;;;;;19.50;58.24;100433.28;20820032;28;20080;-85
2021/09/18 10:44:01;;;;;;;6.18;3.72;;;;;;;19.69;59.03;100426.09;20832016;28;20049;-84
2021/09/18 10:54:14;;;;;;;6.93;4.47;;;;;;;19.84;58.15;100423.56;20820924;28;20488;-84
2021/09/18 11:04:37;;;;;;;5.90;3.72;;;;;;;19.57;57.39;100416.09;20838132;28;20474;-84
2021/09/18 11:14:38;;;;;;;6.28;4.10;;;;;;;19.63;59.31;100409.63;20821540;28;20041;-84
2021/09/18 11:24:40;;;;;;;7.72;4.03;;;;;;;19.86;58.06;100395.97;20819769;28;20104;-84
2021/09/18 11:34:47;;;;;;;6.85;3.70;;;;;;;20.04;56.48;100394.09;20835601;28;20057;-84
2021/09/18 11:44:56;;;;;;;5.45;3.28;;;;;;;20.15;57.12;100382.88;20813747;28;20050;-85
2021/09/18 11:54:58;;;;;;;6.97;3.53;;;;;;;20.36;53.70;100378.13;20826888;28;20049;-84
2021/09/18 12:05:00;;;;;;;6.25;3.25;;;;;;;20.75;54.80;100364.41;20837453;28;20091;-84
2021/09/18 12:15:02;;;;;;;9.02;3.42;;;;;;;20.79;52.55;100351.75;20835325;28;20057;-84
2021/09/18 12:25:05;;;;;;;5.13;3.08;;;;;;;20.75;51.34;100349.28;20819536;28;20053;-82
2021/09/18 12:35:10;;;;;;;6.43;3.20;;;;;;;20.89;51.53;100345.81;20827571;28;20045;-83
2021/09/18 12:45:27;;;;;;;9.10;3.10;;;;;;;21.00;50.42;100338.03;20842779;28;20100;-82
2021/09/18 12:55:29;;;;;;;8.40;3.10;;;;;;;20.99;51.29;100341.66;20821837;28;20049;-81
2021/09/18 13:05:30;;;;;;;4.53;2.70;;;;;;;21.15;50.04;100330.94;20837584;28;20745;-81
2021/09/18 13:15:32;;;;;;;6.20;2.85;;;;;;;21.33;50.82;100328.16;20839353;28;20045;-80
2021/09/18 13:25:34;;;;;;;4.93;2.95;;;;;;;21.31;49.33;100316.72;20821293;28;20148;-82
2021/09/18 13:35:36;;;;;;;5.53;3.13;;;;;;;21.48;48.86;100311.22;20820198;28;20549;-83
2021/09/18 13:45:38;;;;;;;5.63;3.28;;;;;;;21.69;49.04;100296.53;20818860;28;20104;-83
2021/09/18 13:55:40;;;;;;;5.28;3.20;;;;;;;21.56;49.07;100292.94;20841857;28;20052;-83
2021/09/18 14:05:42;;;;;;;5.65;3.58;;;;;;;21.45;50.32;100272.28;20819968;28;20048;-83
2021/09/18 14:15:44;;;;;;;7.78;3.50;;;;;;;21.37;48.92;100265.75;20841452;28;20049;-83
2021/09/18 14:25:46;;;;;;;5.30;2.95;;;;;;;21.65;47.99;100247.03;20839044;28;20049;-82
2021/09/18 14:35:48;;;;;;;5.35;3.55;;;;;;;21.59;48.53;100255.44;20841480;28;20450;-82
2021/09/18 14:45:50;;;;;;;6.10;3.58;;;;;;;21.57;47.12;100241.34;20840916;28;20049;-83
2021/09/18 14:55:51;;;;;;;7.15;3.55;;;;;;;21.69;48.21;100243.22;20860010;23;20376;-73
2021/09/18 15:05:53;;;;;;;6.13;3.95;;;;;;;21.61;47.85;100236.69;20789018;28;20050;-74
2021/09/18 15:15:55;;;;;;;6.93;3.88;;;;;;;21.57;48.22;100232.50;20772605;28;20112;-73
2021/09/18 15:25:57;;;;;;;6.43;3.90;;;;;;;21.61;48.90;100226.03;20732148;28;20049;-74
2021/09/18 15:35:59;;;;;;;7.28;5.00;;;;;;;21.42;50.91;100221.88;20666517;28;20463;-74
2021/09/18 15:46:01;;;;;;;8.65;4.93;;;;;;;21.42;51.84;100215.69;20657761;28;20448;-74
2021/09/18 15:56:03;;;;;;;8.25;4.70;;;;;;;21.37;52.21;100209.81;20656733;28;20057;-74
2021/09/18 16:06:05;;;;;;;6.97;5.07;;;;;;;21.38;51.96;100204.38;20656182;28;20050;-74
2021/09/18 16:16:07;;;;;;;7.57;5.15;;;;;;;21.16;52.83;100210.16;20722735;28;20109;-74
2021/09/18 16:26:09;;;;;;;8.73;5.70;;;;;;;20.96;54.03;100202.56;20737278;28;20042;-74
2021/09/18 16:36:11;;;;;;;11.48;6.75;;;;;;;20.71;54.77;100187.25;20736354;28;20389;-74
2021/09/18 16:46:13;;;;;;;8.52;5.80;;;;;;;20.34;56.64;100197.41;20737503;28;20100;-74
2021/09/18 16:56:16;;;;;;;10.20;5.65;;;;;;;20.09;58.27;100200.66;20736519;28;20050;-74
2021/09/18 17:06:18;;;;;;;7.75;5.80;;;;;;;19.83;59.34;100201.31;20736019;28;20124;-74
2021/09/18 17:16:20;;;;;;;9.48;5.65;;;;;;;19.38;63.21;100198.47;20804617;28;20068;-74
2021/09/18 17:26:23;;;;;;;8.93;6.40;;;;;;;18.69;67.03;100199.53;20831571;28;20423;-74
2021/09/18 17:36:25;;;;;;;9.13;6.85;;;;;;;18.35;68.42;100211.00;20830745;28;20037;-74
2021/09/18 17:46:28;;;;;;;10.02;7.30;;;;;;;17.84;70.73;100212.66;20830066;28;20107;-74
2021/09/18 17:56:29;;;;;;;10.40;7.63;;;;;;;17.64;71.69;100207.44;20829286;28;20042;-74
2021/09/18 18:06:31;;;;;;;13.73;8.32;;;;;;;17.86;68.98;100197.53;20828354;28;20038;-74
2021/09/18 18:16:33;;;;;;;13.02;8.27;;;;;;;17.81;69.89;100204.00;20772363;28;20050;-74
2021/09/18 18:26:35;;;;;;;10.95;8.27;;;;;;;17.64;70.74;100224.19;20757375;28;20054;-74
2021/09/18 18:36:38;;;;;;;13.30;8.48;;;;;;;17.30;72.68;100230.19;20771316;28;20103;-74
2021/09/18 18:46:39;;;;;;;13.93;8.13;;;;;;;17.11;73.01;100227.53;20742899;28;20412;-74
2021/09/18 18:56:41;;;;;;;11.40;8.50;;;;;;;16.81;74.43;100234.19;20742734;28;20046;-74
2021/09/18 19:06:43;;;;;;;11.23;8.68;;;;;;;16.60;75.37;100223.59;20741911;28;20049;-74
2021/09/18 19:16:44;;;;;;;13.95;9.60;;;;;;;16.44;76.10;100232.25;20799312;28;20400;-74
2021/09/18 19:26:46;;;;;;;12.80;10.30;;;;;;;16.38;76.17;100238.63;20822876;28;20466;-74
2021/09/18 19:36:48;;;;;;;12.48;9.60;;;;;;;16.38;75.96;100243.91;20820723;28;20091;-74
2021/09/18 19:46:50;;;;;;;12.13;9.50;;;;;;;16.47;75.20;100240.91;20821097;28;20099;-74
2021/09/18 19:56:52;;;;;;;12.52;10.25;;;;;;;16.58;74.75;100243.09;20820625;28;20079;-74
2021/09/18 20:06:54;;;;;;;15.57;10.85;;;;;;;16.57;74.90;100239.56;20819175;28;20045;-74
2021/09/18 20:16:55;;;;;;;15.27;11.00;;;;;;;16.47;75.45;100235.59;20761004;28;20488;-74
2021/09/18 20:26:57;;;;;;;12.75;10.05;;;;;;;16.30;76.38;100231.06;20737149;28;20077;-74
2021/09/18 20:36:59;;;;;;;12.15;10.15;;;;;;;16.09;77.17;100243.34;20736836;28;20092;-74
2021/09/18 20:47:02;;;;;;;13.30;10.23;;;;;;;15.99;77.36;100244.66;20746868;28;20054;-74
2021/09/18 20:57:03;;;;;;;13.15;10.05;;;;;;;15.80;78.25;100251.59;20752319;28;20119;-74
2021/09/18 21:07:05;;;;;;;13.43;10.07;;;;;;;15.72;78.70;100253.69;20749459;28;20046;-74
2021/09/18 21:17:07;;;;;;;14.40;10.13;;;;;;;15.49;79.40;100247.47;20810680;28;20095;-74
2021/09/18 21:27:09;;;;;;;14.02;10.25;;;;;;;15.33;79.90;100243.69;20831877;28;20072;-74
2021/09/18 21:37:11;;;;;;;13.88;9.82;;;;;;;15.24;80.49;100237.00;20829191;28;20072;-74
2021/09/18 21:47:13;;;;;;;13.13;9.63;;;;;;;15.19;80.05;100238.06;20830079;28;20115;-74
2021/09/18 21:57:14;;;;;;;12.32;8.88;;;;;;;15.13;79.71;100224.19;20828052;28;20076;-74
2021/09/18 22:07:16;;;;;;;11.63;8.73;;;;;;;15.21;78.42;100225.69;20787808;28;20099;-74
2021/09/18 22:17:18;;;;;;;12.13;8.00;;;;;;;15.11;78.74;100223.41;20745565;28;20045;-73
2021/09/18 22:27:20;;;;;;;11.70;8.38;;;;;;;14.99;79.15;100226.47;20743329;28;20050;-75
2021/09/18 22:37:22;;;;;;;11.10;8.05;;;;;;;14.85;79.20;100223.47;20742779;28;20050;-74
2021/09/18 22:47:23;;;;;;;12.85;7.85;;;;;;;14.87;78.68;100219.91;20751399;28;20112;-74
2021/09/18 22:57:25;;;;;;;11.35;6.97;;;;;;;14.86;77.79;100219.97;20759341;28;20073;-74
2021/09/18 23:07:27;;;;;;;11.05;7.28;;;;;;;14.59;79.42;100217.38;20739829;28;20042;-73
2021/09/18 23:17:29;;;;;;;8.23;5.88;;;;;;;14.58;79.04;100217.44;20739581;28;20046;-74
2021/09/18 23:27:31;;;;;;;9.18;5.88;;;;;;;14.48;79.24;100230.06;20739379;28;20169;-74
2021/09/18 23:37:34;;;;;;;9.13;5.70;;;;;;;14.29;80.02;100221.06;20737323;28;20042;-74
2021/09/18 23:47:38;;;;;;;8.75;5.38;;;;;;;14.18;80.46;100225.78;20738680;28;20065;-73
2021/09/18 23:57:40;;;;;;;15.68;6.22;;;;;;;14.09;80.73;100222.56;20737782;28;20572;-74
